sensor_id;sensor_type;location;lat;lon;timestamp;P1;durP1;ratioP1;P2;durP2;ratioP2
6249;SDS011;3158;52.148;11.568;2023-06-22T00:02:03;4.95;;;4.53;;
6249;SDS011;3158;52.148;11.568;2023-06-22T00:07:04;5.78;;;5.35;;
6249;SDS011;3158;52.148;11.568;2023-06-22T00:12:06;5.78;;;5.38;;
6249;SDS011;3158;52.148;11.568;2023-06-22T00:17:07;6.28;;;5.68;;
6249;SDS011;3158;52.148;11.568;2023-06-22T00:22:08;7.20;;;5.32;;
6249;SDS011;3158;52.148;11.568;2023-06-22T00:27:09;6.00;;;5.60;;
6249;SDS011;3158;52.148;11.568;2023-06-22T00:32:10;5.32;;;4.90;;
6249;SDS011;3158;52.148;11.568;2023-06-22T00:37:11;6.43;;;5.63;;
6249;SDS011;3158;52.148;11.568;2023-06-22T00:42:12;5.60;;;5.20;;
6249;SDS011;3158;52.148;11.568;2023-06-22T00:47:14;4.85;;;4.55;;
6249;SDS011;3158;52.148;11.568;2023-06-22T00:52:16;6.32;;;5.85;;
6249;SDS011;3158;52.148;11.568;2023-06-22T00:57:20;6.35;;;5.75;;
6249;SDS011;3158;52.148;11.568;2023-06-22T01:02:22;5.35;;;5.10;;
6249;SDS011;3158;52.148;11.568;2023-06-22T01:07:35;5.88;;;5.47;;
6249;SDS011;3158;52.148;11.568;2023-06-22T01:12:42;5.65;;;5.32;;
6249;SDS011;3158;52.148;11.568;2023-06-22T01:17:43;5.97;;;5.57;;
6249;SDS011;3158;52.148;11.568;2023-06-22T01:23:02;6.40;;;5.80;;
6249;SDS011;3158;52.148;11.568;2023-06-22T01:28:13;5.70;;;5.30;;
6249;SDS011;3158;52.148;11.568;2023-06-22T01:33:19;5.28;;;4.90;;
6249;SDS011;3158;52.148;11.568;2023-06-22T01:38:20;5.85;;;5.32;;
6249;SDS011;3158;52.148;11.568;2023-06-22T01:43:22;5.55;;;5.03;;
6249;SDS011;3158;52.148;11.568;2023-06-22T01:48:24;8.48;;;5.47;;
6249;SDS011;3158;52.148;11.568;2023-06-22T01:53:26;5.90;;;5.50;;
6249;SDS011;3158;52.148;11.568;2023-06-22T01:58:27;6.00;;;5.50;;
6249;SDS011;3158;52.148;11.568;2023-06-22T02:03:31;5.18;;;4.88;;
6249;SDS011;3158;52.148;11.568;2023-06-22T02:09:16;6.75;;;6.15;;
6249;SDS011;3158;52.148;11.568;2023-06-22T02:13:57;6.15;;;5.63;;
6249;SDS011;3158;52.148;11.568;2023-06-22T02:18:59;6.28;;;5.70;;
6249;SDS011;3158;52.148;11.568;2023-06-22T02:24:03;5.75;;;5.35;;
6249;SDS011;3158;52.148;11.568;2023-06-22T02:29:04;7.50;;;6.63;;
6249;SDS011;3158;52.148;11.568;2023-06-22T02:34:05;8.55;;;6.28;;
6249;SDS011;3158;52.148;11.568;2023-06-22T02:39:06;6.35;;;5.85;;
6249;SDS011;3158;52.148;11.568;2023-06-22T02:44:07;7.07;;;5.50;;
6249;SDS011;3158;52.148;11.568;2023-06-22T02:49:08;5.93;;;5.50;;
6249;SDS011;3158;52.148;11.568;2023-06-22T02:54:09;7.95;;;5.95;;
6249;SDS011;3158;52.148;11.568;2023-06-22T02:59:11;7.68;;;6.75;;
6249;SDS011;3158;52.148;11.568;2023-06-22T03:04:12;12.43;;;7.13;;
6249;SDS011;3158;52.148;11.568;2023-06-22T03:09:14;8.82;;;7.00;;
6249;SDS011;3158;52.148;11.568;2023-06-22T03:14:15;7.15;;;6.43;;
6249;SDS011;3158;52.148;11.568;2023-06-22T03:19:16;6.38;;;5.85;;
6249;SDS011;3158;52.148;11.568;2023-06-22T03:24:17;7.30;;;6.70;;
6249;SDS011;3158;52.148;11.568;2023-06-22T03:29:18;7.22;;;6.63;;
6249;SDS011;3158;52.148;11.568;2023-06-22T03:34:19;7.20;;;6.65;;
6249;SDS011;3158;52.148;11.568;2023-06-22T03:39:20;7.55;;;6.10;;
6249;SDS011;3158;52.148;11.568;2023-06-22T03:44:22;6.57;;;5.97;;
6249;SDS011;3158;52.148;11.568;2023-06-22T03:49:23;6.32;;;5.75;;
6249;SDS011;3158;52.148;11.568;2023-06-22T03:54:24;6.97;;;6.43;;
6249;SDS011;3158;52.148;11.568;2023-06-22T03:59:26;5.68;;;5.28;;
6249;SDS011;3158;52.148;11.568;2023-06-22T04:04:27;6.15;;;5.32;;
6249;SDS011;3158;52.148;11.568;2023-06-22T04:09:28;6.05;;;5.53;;
6249;SDS011;3158;52.148;11.568;2023-06-22T04:14:29;5.38;;;5.07;;
6249;SDS011;3158;52.148;11.568;2023-06-22T04:19:30;5.78;;;5.30;;
6249;SDS011;3158;52.148;11.568;2023-06-22T04:24:31;8.10;;;5.43;;
6249;SDS011;3158;52.148;11.568;2023-06-22T04:29:32;6.20;;;5.65;;
6249;SDS011;3158;52.148;11.568;2023-06-22T04:34:33;5.47;;;5.18;;
6249;SDS011;3158;52.148;11.568;2023-06-22T04:39:34;5.90;;;5.55;;
6249;SDS011;3158;52.148;11.568;2023-06-22T04:44:36;6.10;;;5.53;;
6249;SDS011;3158;52.148;11.568;2023-06-22T04:49:37;6.30;;;5.72;;
6249;SDS011;3158;52.148;11.568;2023-06-22T04:54:38;5.93;;;5.43;;
6249;SDS011;3158;52.148;11.568;2023-06-22T04:59:40;5.47;;;5.07;;
6249;SDS011;3158;52.148;11.568;2023-06-22T05:04:41;5.00;;;4.60;;
6249;SDS011;3158;52.148;11.568;2023-06-22T05:09:42;5.47;;;4.97;;
6249;SDS011;3158;52.148;11.568;2023-06-22T05:14:43;7.57;;;4.65;;
6249;SDS011;3158;52.148;11.568;2023-06-22T05:19:44;5.28;;;4.97;;
6249;SDS011;3158;52.148;11.568;2023-06-22T05:24:48;7.15;;;5.25;;
6249;SDS011;3158;52.148;11.568;2023-06-22T05:29:49;5.97;;;5.53;;
6249;SDS011;3158;52.148;11.568;2023-06-22T05:34:50;5.65;;;5.13;;
6249;SDS011;3158;52.148;11.568;2023-06-22T05:39:51;5.93;;;5.40;;
6249;SDS011;3158;52.148;11.568;2023-06-22T05:44:52;6.38;;;5.88;;
6249;SDS011;3158;52.148;11.568;2023-06-22T05:49:53;6.13;;;5.82;;
6249;SDS011;3158;52.148;11.568;2023-06-22T05:54:54;6.18;;;5.82;;
6249;SDS011;3158;52.148;11.568;2023-06-22T05:59:55;6.20;;;5.65;;
6249;SDS011;3158;52.148;11.568;2023-06-22T06:04:56;6.50;;;6.00;;
6249;SDS011;3158;52.148;11.568;2023-06-22T06:09:57;6.05;;;5.60;;
6249;SDS011;3158;52.148;11.568;2023-06-22T06:14:58;6.18;;;5.80;;
6249;SDS011;3158;52.148;11.568;2023-06-22T06:19:59;6.70;;;6.05;;
6249;SDS011;3158;52.148;11.568;2023-06-22T06:25:00;6.57;;;6.18;;
6249;SDS011;3158;52.148;11.568;2023-06-22T06:30:01;9.15;;;6.50;;
6249;SDS011;3158;52.148;11.568;2023-06-22T06:35:06;7.47;;;6.78;;
6249;SDS011;3158;52.148;11.568;2023-06-22T07:00:14;6.15;;;5.75;;
6249;SDS011;3158;52.148;11.568;2023-06-22T07:05:15;6.72;;;6.22;;
6249;SDS011;3158;52.148;11.568;2023-06-22T07:10:16;7.15;;;6.43;;
6249;SDS011;3158;52.148;11.568;2023-06-22T07:15:17;6.93;;;6.30;;
6249;SDS011;3158;52.148;11.568;2023-06-22T07:20:18;6.80;;;6.18;;
6249;SDS011;3158;52.148;11.568;2023-06-22T07:25:19;8.68;;;6.03;;
6249;SDS011;3158;52.148;11.568;2023-06-22T07:30:20;7.97;;;7.18;;
6249;SDS011;3158;52.148;11.568;2023-06-22T07:35:21;6.13;;;5.72;;
6249;SDS011;3158;52.148;11.568;2023-06-22T07:40:22;7.18;;;6.50;;
6249;SDS011;3158;52.148;11.568;2023-06-22T07:45:24;7.43;;;6.55;;
6249;SDS011;3158;52.148;11.568;2023-06-22T07:50:25;6.97;;;6.47;;
6249;SDS011;3158;52.148;11.568;2023-06-22T07:55:26;7.13;;;6.57;;
6249;SDS011;3158;52.148;11.568;2023-06-22T08:00:27;7.03;;;6.63;;
6249;SDS011;3158;52.148;11.568;2023-06-22T08:05:28;7.43;;;6.93;;
6249;SDS011;3158;52.148;11.568;2023-06-22T08:10:29;8.00;;;7.13;;
6249;SDS011;3158;52.148;11.568;2023-06-22T08:15:30;7.20;;;6.35;;
6249;SDS011;3158;52.148;11.568;2023-06-22T08:20:31;7.13;;;6.63;;
6249;SDS011;3158;52.148;11.568;2023-06-22T08:25:33;7.32;;;6.78;;
6249;SDS011;3158;52.148;11.568;2023-06-22T08:30:34;7.57;;;6.82;;
6249;SDS011;3158;52.148;11.568;2023-06-22T08:35:35;7.28;;;6.35;;
6249;SDS011;3158;52.148;11.568;2023-06-22T08:40:36;7.15;;;6.75;;
6249;SDS011;3158;52.148;11.568;2023-06-22T08:45:37;6.95;;;6.45;;
6249;SDS011;3158;52.148;11.568;2023-06-22T08:50:38;7.90;;;7.25;;
6249;SDS011;3158;52.148;11.568;2023-06-22T08:55:40;7.68;;;6.95;;
6249;SDS011;3158;52.148;11.568;2023-06-22T09:00:41;6.97;;;6.53;;
6249;SDS011;3158;52.148;11.568;2023-06-22T09:05:42;7.95;;;7.35;;
6249;SDS011;3158;52.148;11.568;2023-06-22T09:10:43;6.88;;;6.32;;
6249;SDS011;3158;52.148;11.568;2023-06-22T09:15:44;7.88;;;7.28;;
6249;SDS011;3158;52.148;11.568;2023-06-22T09:20:45;7.35;;;6.88;;
6249;SDS011;3158;52.148;11.568;2023-06-22T09:25:46;7.40;;;6.82;;
6249;SDS011;3158;52.148;11.568;2023-06-22T09:30:47;7.70;;;7.18;;
6249;SDS011;3158;52.148;11.568;2023-06-22T09:35:48;8.15;;;7.55;;
6249;SDS011;3158;52.148;11.568;2023-06-22T09:40:51;8.50;;;7.68;;
6249;SDS011;3158;52.148;11.568;2023-06-22T09:45:51;7.75;;;7.15;;
6249;SDS011;3158;52.148;11.568;2023-06-22T09:50:52;7.18;;;6.68;;
6249;SDS011;3158;52.148;11.568;2023-06-22T09:55:53;7.43;;;6.82;;
6249;SDS011;3158;52.148;11.568;2023-06-22T10:00:54;7.68;;;7.18;;
6249;SDS011;3158;52.148;11.568;2023-06-22T10:05:55;8.27;;;7.65;;
6249;SDS011;3158;52.148;11.568;2023-06-22T10:10:56;7.90;;;7.32;;
6249;SDS011;3158;52.148;11.568;2023-06-22T10:15:57;8.27;;;7.68;;
6249;SDS011;3158;52.148;11.568;2023-06-22T10:20:59;9.02;;;8.38;;
6249;SDS011;3158;52.148;11.568;2023-06-22T10:26:01;8.23;;;7.72;;
6249;SDS011;3158;52.148;11.568;2023-06-22T10:31:02;8.70;;;8.05;;
6249;SDS011;3158;52.148;11.568;2023-06-22T10:36:03;9.70;;;8.80;;
6249;SDS011;3158;52.148;11.568;2023-06-22T10:41:04;8.57;;;7.97;;
6249;SDS011;3158;52.148;11.568;2023-06-22T10:46:06;8.43;;;7.72;;
6249;SDS011;3158;52.148;11.568;2023-06-22T10:51:07;8.65;;;8.05;;
6249;SDS011;3158;52.148;11.568;2023-06-22T10:56:08;8.35;;;7.85;;
6249;SDS011;3158;52.148;11.568;2023-06-22T11:01:09;8.98;;;8.18;;
6249;SDS011;3158;52.148;11.568;2023-06-22T11:06:10;8.15;;;7.65;;
6249;SDS011;3158;52.148;11.568;2023-06-22T11:11:11;8.52;;;7.93;;
6249;SDS011;3158;52.148;11.568;2023-06-22T11:16:12;8.27;;;7.43;;
6249;SDS011;3158;52.148;11.568;2023-06-22T11:21:13;9.13;;;8.27;;
6249;SDS011;3158;52.148;11.568;2023-06-22T11:26:14;8.63;;;7.97;;
6249;SDS011;3158;52.148;11.568;2023-06-22T11:31:15;9.15;;;8.32;;
6249;SDS011;3158;52.148;11.568;2023-06-22T11:36:16;8.45;;;7.85;;
6249;SDS011;3158;52.148;11.568;2023-06-22T11:41:17;8.40;;;7.88;;
6249;SDS011;3158;52.148;11.568;2023-06-22T11:46:18;7.93;;;7.45;;
6249;SDS011;3158;52.148;11.568;2023-06-22T11:51:19;7.78;;;7.32;;
6249;SDS011;3158;52.148;11.568;2023-06-22T11:56:20;8.60;;;8.02;;
6249;SDS011;3158;52.148;11.568;2023-06-22T12:01:21;8.20;;;7.68;;
6249;SDS011;3158;52.148;11.568;2023-06-22T12:06:22;8.52;;;8.02;;
6249;SDS011;3158;52.148;11.568;2023-06-22T12:11:23;9.00;;;8.23;;
6249;SDS011;3158;52.148;11.568;2023-06-22T12:16:24;8.13;;;7.63;;
6249;SDS011;3158;52.148;11.568;2023-06-22T12:21:25;7.45;;;7.07;;
6249;SDS011;3158;52.148;11.568;2023-06-22T12:26:26;8.05;;;7.55;;
6249;SDS011;3158;52.148;11.568;2023-06-22T12:31:27;7.85;;;7.30;;
6249;SDS011;3158;52.148;11.568;2023-06-22T12:36:28;9.10;;;8.30;;
6249;SDS011;3158;52.148;11.568;2023-06-22T12:41:29;8.02;;;7.53;;
6249;SDS011;3158;52.148;11.568;2023-06-22T12:46:30;7.53;;;7.13;;
6249;SDS011;3158;52.148;11.568;2023-06-22T12:51:40;8.25;;;7.75;;
6249;SDS011;3158;52.148;11.568;2023-06-22T12:56:42;9.02;;;8.45;;
6249;SDS011;3158;52.148;11.568;2023-06-22T13:01:45;8.05;;;7.45;;
6249;SDS011;3158;52.148;11.568;2023-06-22T13:06:46;12.98;;;8.13;;
6249;SDS011;3158;52.148;11.568;2023-06-22T13:11:47;8.07;;;7.57;;
6249;SDS011;3158;52.148;11.568;2023-06-22T13:16:49;7.60;;;7.20;;
6249;SDS011;3158;52.148;11.568;2023-06-22T13:21:50;7.80;;;7.40;;
6249;SDS011;3158;52.148;11.568;2023-06-22T13:26:51;8.80;;;8.00;;
6249;SDS011;3158;52.148;11.568;2023-06-22T13:31:52;7.85;;;7.35;;
6249;SDS011;3158;52.148;11.568;2023-06-22T13:36:57;7.05;;;6.68;;
6249;SDS011;3158;52.148;11.568;2023-06-22T13:41:58;7.35;;;6.65;;
6249;SDS011;3158;52.148;11.568;2023-06-22T13:46:59;7.68;;;7.18;;
6249;SDS011;3158;52.148;11.568;2023-06-22T13:52:00;7.50;;;6.90;;
6249;SDS011;3158;52.148;11.568;2023-06-22T13:57:03;7.28;;;6.88;;
6249;SDS011;3158;52.148;11.568;2023-06-22T14:02:04;7.97;;;7.35;;
6249;SDS011;3158;52.148;11.568;2023-06-22T14:07:05;7.93;;;7.43;;
6249;SDS011;3158;52.148;11.568;2023-06-22T14:12:07;7.38;;;6.95;;
6249;SDS011;3158;52.148;11.568;2023-06-22T14:17:08;7.28;;;6.88;;
6249;SDS011;3158;52.148;11.568;2023-06-22T14:22:09;7.30;;;6.90;;
6249;SDS011;3158;52.148;11.568;2023-06-22T14:27:10;7.10;;;6.80;;
6249;SDS011;3158;52.148;11.568;2023-06-22T14:32:11;7.07;;;6.65;;
6249;SDS011;3158;52.148;11.568;2023-06-22T14:37:12;7.22;;;6.85;;
6249;SDS011;3158;52.148;11.568;2023-06-22T14:42:13;6.82;;;6.43;;
6249;SDS011;3158;52.148;11.568;2023-06-22T14:47:14;6.68;;;6.28;;
6249;SDS011;3158;52.148;11.568;2023-06-22T14:52:16;9.23;;;7.13;;
6249;SDS011;3158;52.148;11.568;2023-06-22T14:57:17;7.38;;;6.88;;
6249;SDS011;3158;52.148;11.568;2023-06-22T15:02:19;7.57;;;7.07;;
6249;SDS011;3158;52.148;11.568;2023-06-22T15:07:20;6.95;;;6.57;;
6249;SDS011;3158;52.148;11.568;2023-06-22T15:12:21;8.35;;;6.75;;
6249;SDS011;3158;52.148;11.568;2023-06-22T15:17:22;7.07;;;6.47;;
6249;SDS011;3158;52.148;11.568;2023-06-22T15:22:24;6.80;;;6.45;;
6249;SDS011;3158;52.148;11.568;2023-06-22T15:27:25;7.10;;;6.50;;
6249;SDS011;3158;52.148;11.568;2023-06-22T15:32:26;7.18;;;6.78;;
6249;SDS011;3158;52.148;11.568;2023-06-22T15:37:28;7.07;;;6.68;;
6249;SDS011;3158;52.148;11.568;2023-06-22T15:42:29;6.63;;;6.15;;
6249;SDS011;3158;52.148;11.568;2023-06-22T15:47:30;6.72;;;6.32;;
6249;SDS011;3158;52.148;11.568;2023-06-22T15:52:31;6.00;;;5.70;;
6249;SDS011;3158;52.148;11.568;2023-06-22T15:57:32;6.00;;;5.70;;
6249;SDS011;3158;52.148;11.568;2023-06-22T16:02:34;6.00;;;5.70;;
6249;SDS011;3158;52.148;11.568;2023-06-22T16:07:36;6.05;;;5.55;;
6249;SDS011;3158;52.148;11.568;2023-06-22T16:12:40;6.05;;;5.70;;
6249;SDS011;3158;52.148;11.568;2023-06-22T16:17:42;5.75;;;5.35;;
6249;SDS011;3158;52.148;11.568;2023-06-22T16:22:43;5.32;;;5.03;;
6249;SDS011;3158;52.148;11.568;2023-06-22T16:27:46;5.10;;;4.85;;
6249;SDS011;3158;52.148;11.568;2023-06-22T16:32:50;5.45;;;5.10;;
6249;SDS011;3158;52.148;11.568;2023-06-22T16:37:55;5.18;;;4.75;;
6249;SDS011;3158;52.148;11.568;2023-06-22T16:42:56;5.43;;;5.03;;
6249;SDS011;3158;52.148;11.568;2023-06-22T16:47:57;5.32;;;5.03;;
6249;SDS011;3158;52.148;11.568;2023-06-22T16:52:58;5.45;;;5.15;;
6249;SDS011;3158;52.148;11.568;2023-06-22T16:57:59;5.32;;;4.40;;
6249;SDS011;3158;52.148;11.568;2023-06-22T17:03:02;4.43;;;4.22;;
6249;SDS011;3158;52.148;11.568;2023-06-22T17:08:04;4.15;;;4.05;;
6249;SDS011;3158;52.148;11.568;2023-06-22T17:13:05;4.53;;;4.32;;
6249;SDS011;3158;52.148;11.568;2023-06-22T17:18:06;4.20;;;4.00;;
6249;SDS011;3158;52.148;11.568;2023-06-22T17:23:07;4.05;;;3.90;;
6249;SDS011;3158;52.148;11.568;2023-06-22T17:28:09;4.32;;;4.13;;
6249;SDS011;3158;52.148;11.568;2023-06-22T17:33:14;4.13;;;4.00;;
6249;SDS011;3158;52.148;11.568;2023-06-22T17:38:21;5.90;;;4.65;;
6249;SDS011;3158;52.148;11.568;2023-06-22T17:43:22;4.40;;;4.10;;
6249;SDS011;3158;52.148;11.568;2023-06-22T17:48:23;12.43;;;4.72;;
6249;SDS011;3158;52.148;11.568;2023-06-22T17:53:25;1.63;;;1.50;;
6249;SDS011;3158;52.148;11.568;2023-06-22T17:58:27;4.60;;;1.10;;
6249;SDS011;3158;52.148;11.568;2023-06-22T18:03:29;1.30;;;0.77;;
6249;SDS011;3158;52.148;11.568;2023-06-22T18:08:30;2.95;;;1.00;;
6249;SDS011;3158;52.148;11.568;2023-06-22T18:13:31;2.70;;;1.13;;
6249;SDS011;3158;52.148;11.568;2023-06-22T18:18:34;3.00;;;1.67;;
6249;SDS011;3158;52.148;11.568;2023-06-22T18:23:35;1.40;;;1.30;;
6249;SDS011;3158;52.148;11.568;2023-06-22T18:28:37;1.85;;;1.42;;
6249;SDS011;3158;52.148;11.568;2023-06-22T18:33:38;5.13;;;1.75;;
6249;SDS011;3158;52.148;11.568;2023-06-22T18:38:40;1.25;;;1.25;;
6249;SDS011;3158;52.148;11.568;2023-06-22T18:43:42;0.70;;;0.70;;
6249;SDS011;3158;52.148;11.568;2023-06-22T18:48:43;0.85;;;0.82;;
6249;SDS011;3158;52.148;11.568;2023-06-22T18:53:44;1.42;;;0.75;;
6249;SDS011;3158;52.148;11.568;2023-06-22T18:58:45;1.15;;;0.90;;
6249;SDS011;3158;52.148;11.568;2023-06-22T19:03:56;1.83;;;0.90;;
6249;SDS011;3158;52.148;11.568;2023-06-22T19:09:11;1.17;;;1.17;;
6249;SDS011;3158;52.148;11.568;2023-06-22T19:14:22;1.65;;;1.05;;
6249;SDS011;3158;52.148;11.568;2023-06-22T19:19:24;0.88;;;0.88;;
6249;SDS011;3158;52.148;11.568;2023-06-22T19:24:28;1.95;;;1.00;;
6249;SDS011;3158;52.148;11.568;2023-06-22T19:29:30;3.17;;;0.77;;
6249;SDS011;3158;52.148;11.568;2023-06-22T19:34:34;1.85;;;0.75;;
6249;SDS011;3158;52.148;11.568;2023-06-22T19:39:36;0.70;;;0.70;;
6249;SDS011;3158;52.148;11.568;2023-06-22T19:44:37;1.27;;;0.70;;
6249;SDS011;3158;52.148;11.568;2023-06-22T19:49:38;4.88;;;0.80;;
6249;SDS011;3158;52.148;11.568;2023-06-22T19:54:39;4.90;;;1.30;;
6249;SDS011;3158;52.148;11.568;2023-06-22T19:59:40;1.10;;;1.10;;
6249;SDS011;3158;52.148;11.568;2023-06-22T20:04:44;2.92;;;1.02;;
6249;SDS011;3158;52.148;11.568;2023-06-22T20:09:45;1.75;;;0.98;;
6249;SDS011;3158;52.148;11.568;2023-06-22T20:14:46;1.42;;;0.98;;
6249;SDS011;3158;52.148;11.568;2023-06-22T20:19:52;1.00;;;1.00;;
6249;SDS011;3158;52.148;11.568;2023-06-22T20:24:53;0.93;;;0.93;;
6249;SDS011;3158;52.148;11.568;2023-06-22T20:29:54;4.88;;;1.10;;
6249;SDS011;3158;52.148;11.568;2023-06-22T20:34:55;2.13;;;1.10;;
6249;SDS011;3158;52.148;11.568;2023-06-22T20:39:56;0.98;;;0.98;;
6249;SDS011;3158;52.148;11.568;2023-06-22T20:44:57;1.88;;;0.98;;
6249;SDS011;3158;52.148;11.568;2023-06-22T20:49:58;0.82;;;0.60;;
6249;SDS011;3158;52.148;11.568;2023-06-22T20:54:59;2.13;;;0.63;;
6249;SDS011;3158;52.148;11.568;2023-06-22T21:00:01;0.85;;;0.85;;
6249;SDS011;3158;52.148;11.568;2023-06-22T21:05:06;1.75;;;0.80;;
6249;SDS011;3158;52.148;11.568;2023-06-22T21:10:07;0.90;;;0.90;;
6249;SDS011;3158;52.148;11.568;2023-06-22T21:15:08;0.70;;;0.70;;
6249;SDS011;3158;52.148;11.568;2023-06-22T21:20:10;1.63;;;0.80;;
6249;SDS011;3158;52.148;11.568;2023-06-22T21:25:11;0.40;;;0.40;;
6249;SDS011;3158;52.148;11.568;2023-06-22T21:30:13;1.27;;;0.52;;
6249;SDS011;3158;52.148;11.568;2023-06-22T21:35:17;1.25;;;0.77;;
6249;SDS011;3158;52.148;11.568;2023-06-22T21:40:18;0.40;;;0.40;;
6249;SDS011;3158;52.148;11.568;2023-06-22T21:45:19;1.40;;;0.55;;
6249;SDS011;3158;52.148;11.568;2023-06-22T21:50:20;0.50;;;0.50;;
6249;SDS011;3158;52.148;11.568;2023-06-22T21:55:21;0.40;;;0.40;;
6249;SDS011;3158;52.148;11.568;2023-06-22T22:00:22;0.77;;;0.73;;
6249;SDS011;3158;52.148;11.568;2023-06-22T22:05:23;0.43;;;0.40;;
6249;SDS011;3158;52.148;11.568;2023-06-22T22:10:24;0.70;;;0.70;;
6249;SDS011;3158;52.148;11.568;2023-06-22T22:15:25;0.80;;;0.80;;
6249;SDS011;3158;52.148;11.568;2023-06-22T22:20:26;1.00;;;1.00;;
6249;SDS011;3158;52.148;11.568;2023-06-22T22:25:27;1.10;;;1.10;;
6249;SDS011;3158;52.148;11.568;2023-06-22T22:30:28;1.23;;;1.23;;
6249;SDS011;3158;52.148;11.568;2023-06-22T22:35:29;1.73;;;1.73;;
6249;SDS011;3158;52.148;11.568;2023-06-22T22:40:30;2.15;;;2.05;;
6249;SDS011;3158;52.148;11.568;2023-06-22T22:45:31;2.40;;;2.40;;
6249;SDS011;3158;52.148;11.568;2023-06-22T22:50:32;2.83;;;2.63;;
6249;SDS011;3158;52.148;11.568;2023-06-22T22:55:33;3.40;;;3.30;;
6249;SDS011;3158;52.148;11.568;2023-06-22T23:00:35;3.00;;;2.85;;
6249;SDS011;3158;52.148;11.568;2023-06-22T23:05:36;20.25;;;3.83;;
6249;SDS011;3158;52.148;11.568;2023-06-22T23:10:38;3.97;;;3.78;;
6249;SDS011;3158;52.148;11.568;2023-06-22T23:15:39;4.45;;;4.18;;
6249;SDS011;3158;52.148;11.568;2023-06-22T23:20:40;5.10;;;4.82;;
6249;SDS011;3158;52.148;11.568;2023-06-22T23:25:41;5.63;;;5.20;;
6249;SDS011;3158;52.148;11.568;2023-06-22T23:30:43;6.15;;;5.72;;
6249;SDS011;3158;52.148;11.568;2023-06-22T23:35:44;5.78;;;5.38;;
6249;SDS011;3158;52.148;11.568;2023-06-22T23:40:45;5.57;;;5.22;;
6249;SDS011;3158;52.148;11.568;2023-06-22T23:45:46;6.13;;;5.72;;
6249;SDS011;3158;52.148;11.568;2023-06-22T23:50:47;6.55;;;6.10;;
6249;SDS011;3158;52.148;11.568;2023-06-22T23:55:48;6.15;;;5.70;;
